Time;durP1;ratioP1;P1;durP2;ratioP2;P2;SDS_P1;SDS_P2;PMS_P1;PMS_P2;Temp;Humidity;BMP_temperature;BMP_pressure;BME280_temperature;BME280_humidity;BME280_pressure;Samples;Min_cycle;Max_cycle;Signal;HPM_P1;HPM_P2
2022/02/16 00:00:46;;;;;;;42.93;29.72;;;;;;;;;;783165;76;26661;-79
2022/02/16 00:02:17;;;;;;;46.60;31.80;;;;;;;;;;783242;76;26239;-81
2022/02/16 00:03:20;;;;;;;41.28;30.25;;;;;;;;;;783147;76;26325;-80
2022/02/16 00:04:23;;;;;;;46.75;32.20;;;;;;;;;;783052;75;26449;-83
2022/02/16 00:09:15;;;;;;;38.65;28.87;;;;;;;;;;783583;75;26676;-81
2022/02/16 00:10:18;;;;;;;43.75;30.77;;;;;;;;;;783374;76;26260;-79
2022/02/16 00:13:51;;;;;;;38.92;28.25;;;;;;;;;;783222;76;26265;-82
2022/02/16 00:14:55;;;;;;;42.65;29.42;;;;;;;;;;783313;76;26759;-80
2022/02/16 00:18:14;;;;;;;40.95;30.43;;;;;;;;;;783452;76;26253;-82
2022/02/16 00:19:17;;;;;;;42.13;29.87;;;;;;;;;;783402;76;26739;-81
2022/02/16 00:22:47;;;;;;;45.38;29.80;;;;;;;;;;783315;76;26697;-83
2022/02/16 00:23:50;;;;;;;41.18;29.67;;;;;;;;;;783172;76;26681;-82
2022/02/16 00:24:53;;;;;;;39.78;29.50;;;;;;;;;;783326;75;26751;-80
2022/02/16 00:28:26;;;;;;;40.58;28.67;;;;;;;;;;783295;76;26251;-80
2022/02/16 00:30:46;;;;;;;40.05;28.55;;;;;;;;;;792410;75;26288;-80
2022/02/16 00:34:22;;;;;;;42.75;28.32;;;;;;;;;;792634;75;26684;-79
2022/02/16 00:35:24;;;;;;;40.90;29.37;;;;;;;;;;792499;73;26226;-81
2022/02/16 00:39:41;;;;;;;42.05;29.45;;;;;;;;;;792567;75;26729;-80
2022/02/16 00:42:16;;;;;;;40.23;28.40;;;;;;;;;;792583;75;26313;-79
2022/02/16 00:46:55;;;;;;;44.90;32.55;;;;;;;;;;792611;75;26239;-80
2022/02/16 00:51:27;;;;;;;41.13;29.00;;;;;;;;;;792656;75;26279;-80
2022/02/16 00:56:11;;;;;;;48.95;31.37;;;;;;;;;;792701;75;26648;-80
2022/02/16 00:57:16;;;;;;;41.33;30.02;;;;;;;;;;792598;75;26669;-80
2022/02/16 01:00:49;;;;;;;41.02;29.23;;;;;;;;;;792651;75;26730;-79
2022/02/16 01:01:52;;;;;;;44.10;29.82;;;;;;;;;;792583;75;26234;-80
2022/02/16 01:06:48;;;;;;;43.00;29.25;;;;;;;;;;792604;75;26258;-79
2022/02/16 01:11:44;;;;;;;40.63;29.50;;;;;;;;;;792545;75;26726;-79
2022/02/16 01:12:47;;;;;;;41.98;29.35;;;;;;;;;;792648;75;26336;-80
2022/02/16 01:13:49;;;;;;;43.92;29.02;;;;;;;;;;792701;75;26243;-81
2022/02/16 01:14:53;;;;;;;38.33;28.85;;;;;;;;;;792655;75;26661;-81
2022/02/16 01:18:03;;;;;;;42.13;29.23;;;;;;;;;;793105;75;26228;-79
2022/02/16 01:19:06;;;;;;;41.08;28.55;;;;;;;;;;793084;75;26667;-81
2022/02/16 01:23:32;;;;;;;39.58;28.95;;;;;;;;;;793203;74;26238;-79
2022/02/16 01:27:05;;;;;;;39.13;28.42;;;;;;;;;;792689;75;26801;-82
2022/02/16 01:28:08;;;;;;;42.40;28.70;;;;;;;;;;792610;75;26310;-82
2022/02/16 01:32:29;;;;;;;42.85;30.35;;;;;;;;;;786519;73;26239;-81
2022/02/16 01:37:06;;;;;;;44.48;28.60;;;;;;;;;;783451;76;26216;-80
2022/02/16 01:40:20;;;;;;;41.85;27.75;;;;;;;;;;783247;76;26247;-81
2022/02/16 01:41:23;;;;;;;41.28;27.90;;;;;;;;;;783401;76;26256;-81
2022/02/16 01:46:01;;;;;;;37.15;27.13;;;;;;;;;;783244;76;26248;-79
2022/02/16 01:47:05;;;;;;;40.05;26.97;;;;;;;;;;783504;76;26646;-82
2022/02/16 01:48:43;;;;;;;43.17;29.37;;;;;;;;;;783499;76;26324;-80
2022/02/16 01:49:46;;;;;;;40.67;27.98;;;;;;;;;;783342;76;26278;-81
2022/02/16 01:53:19;;;;;;;40.40;28.67;;;;;;;;;;783431;76;26196;-82
2022/02/16 01:54:54;;;;;;;42.48;29.30;;;;;;;;;;783418;76;26689;-80
2022/02/16 01:55:57;;;;;;;39.55;26.87;;;;;;;;;;783202;76;26307;-79
2022/02/16 01:57:00;;;;;;;38.23;29.65;;;;;;;;;;783466;76;26235;-80
2022/02/16 02:00:07;;;;;;;40.55;27.75;;;;;;;;;;783489;76;26727;-79
2022/02/16 02:01:10;;;;;;;46.98;28.98;;;;;;;;;;783239;76;26723;-81
2022/02/16 02:07:52;;;;;;;37.80;26.82;;;;;;;;;;783537;76;26212;-81
2022/02/16 02:11:25;;;;;;;39.53;27.82;;;;;;;;;;783458;76;26293;-81
2022/02/16 02:12:28;;;;;;;36.23;26.97;;;;;;;;;;783347;76;26293;-81
2022/02/16 02:16:00;;;;;;;43.87;28.30;;;;;;;;;;783365;76;26649;-78
2022/02/16 02:17:03;;;;;;;37.50;27.05;;;;;;;;;;783214;76;26239;-78
2022/02/16 02:22:04;;;;;;;39.50;27.02;;;;;;;;;;783343;76;26273;-79
2022/02/16 02:26:36;;;;;;;37.95;27.22;;;;;;;;;;783293;76;26311;-82
2022/02/16 02:31:16;;;;;;;42.62;27.35;;;;;;;;;;783417;76;26654;-80
2022/02/16 02:32:19;;;;;;;41.18;28.05;;;;;;;;;;783317;76;26375;-79
2022/02/16 02:33:22;;;;;;;40.38;28.85;;;;;;;;;;783930;75;26668;-79
2022/02/16 02:36:59;;;;;;;39.60;27.80;;;;;;;;;;784630;75;26339;-81
2022/02/16 02:38:20;;;;;;;43.45;28.98;;;;;;;;;;784237;75;26277;-80
2022/02/16 02:43:04;;;;;;;44.63;27.35;;;;;;;;;;784435;75;26257;-81
2022/02/16 02:47:51;;;;;;;43.15;27.60;;;;;;;;;;784501;75;26208;-79
2022/02/16 02:48:54;;;;;;;40.08;28.98;;;;;;;;;;784286;75;26292;-80
2022/02/16 02:53:50;;;;;;;41.00;29.37;;;;;;;;;;784539;75;26211;-81
2022/02/16 02:57:14;;;;;;;42.60;29.30;;;;;;;;;;784556;75;26348;-80
2022/02/16 02:58:27;;;;;;;40.98;28.70;;;;;;;;;;784563;75;26289;-81
2022/02/16 02:59:29;;;;;;;43.42;29.63;;;;;;;;;;784476;75;26248;-80
2022/02/16 03:00:32;;;;;;;49.93;30.97;;;;;;;;;;784346;75;26730;-80
2022/02/16 03:01:35;;;;;;;41.37;28.47;;;;;;;;;;784510;75;26289;-78
2022/02/16 03:04:35;;;;;;;41.53;28.70;;;;;;;;;;784506;75;24648;-80
2022/02/16 03:05:37;;;;;;;42.33;29.30;;;;;;;;;;784501;75;26290;-79
2022/02/16 03:06:40;;;;;;;39.33;28.98;;;;;;;;;;784405;75;26289;-80
2022/02/16 03:11:21;;;;;;;41.55;28.45;;;;;;;;;;784403;75;26297;-79
2022/02/16 03:12:26;;;;;;;39.40;27.42;;;;;;;;;;784454;74;26235;-79
2022/02/16 03:16:02;;;;;;;39.90;25.52;;;;;;;;;;784343;75;26271;-78
2022/02/16 03:18:58;;;;;;;38.30;26.25;;;;;;;;;;784629;74;26231;-79
2022/02/16 03:22:34;;;;;;;41.00;27.00;;;;;;;;;;784243;75;26236;-79
2022/02/16 03:23:41;;;;;;;41.68;26.45;;;;;;;;;;784495;75;26762;-79
2022/02/16 03:24:43;;;;;;;37.88;25.68;;;;;;;;;;784285;75;26775;-78
2022/02/16 03:25:46;;;;;;;37.35;26.95;;;;;;;;;;784310;75;26688;-79
2022/02/16 03:29:23;;;;;;;37.70;26.85;;;;;;;;;;784361;75;26313;-78
2022/02/16 03:32:22;;;;;;;39.30;25.50;;;;;;;;;;783955;75;26212;-81
2022/02/16 03:36:18;;;;;;;35.70;26.17;;;;;;;;;;785094;73;24698;-79
2022/02/16 03:37:29;;;;;;;37.35;27.67;;;;;;;;;;784337;75;24678;-80
2022/02/16 03:42:15;;;;;;;37.10;26.02;;;;;;;;;;784534;75;26254;-82
2022/02/16 03:43:24;;;;;;;39.25;27.52;;;;;;;;;;784255;75;26287;-78
2022/02/16 03:44:27;;;;;;;42.17;28.15;;;;;;;;;;784273;75;24304;-81
2022/02/16 03:48:04;;;;;;;38.70;27.10;;;;;;;;;;784398;75;26368;-80
2022/02/16 03:49:06;;;;;;;35.20;26.20;;;;;;;;;;784573;75;26235;-79
2022/02/16 03:54:03;;;;;;;44.33;30.12;;;;;;;;;;784614;75;26173;-80
2022/02/16 03:55:20;;;;;;;46.88;32.00;;;;;;;;;;784422;75;26705;-81
2022/02/16 04:00:16;;;;;;;39.35;27.02;;;;;;;;;;784465;75;26199;-79
2022/02/16 04:03:16;;;;;;;33.95;26.15;;;;;;;;;;777518;76;26210;-79
2022/02/16 04:04:19;;;;;;;39.08;27.52;;;;;;;;;;784501;75;26669;-79
2022/02/16 04:09:12;;;;;;;36.58;26.25;;;;;;;;;;784452;75;26203;-80
2022/02/16 04:10:14;;;;;;;40.58;27.27;;;;;;;;;;784455;75;26293;-79
2022/02/16 04:14:59;;;;;;;36.75;25.43;;;;;;;;;;784695;75;26314;-80
2022/02/16 04:18:29;;;;;;;34.43;25.50;;;;;;;;;;784869;75;26762;-81
2022/02/16 04:19:32;;;;;;;38.98;27.35;;;;;;;;;;785979;75;26564;-79
2022/02/16 04:23:09;;;;;;;39.13;27.35;;;;;;;;;;786019;75;26289;-80
2022/02/16 04:24:36;;;;;;;36.45;26.07;;;;;;;;;;786072;75;26273;-77
2022/02/16 04:25:39;;;;;;;36.58;25.50;;;;;;;;;;785972;75;26219;-80
2022/02/16 04:26:43;;;;;;;32.80;25.97;;;;;;;;;;786133;75;26243;-80
2022/02/16 04:28:02;;;;;;;38.08;28.60;;;;;;;;;;786128;75;26340;-78
2022/02/16 04:29:04;;;;;;;39.60;27.25;;;;;;;;;;785797;75;26293;-81
2022/02/16 04:34:04;;;;;;;39.30;26.45;;;;;;;;;;785958;75;26338;-80
2022/02/16 04:35:07;;;;;;;33.90;25.65;;;;;;;;;;786270;74;26244;-80
2022/02/16 04:36:10;;;;;;;35.45;26.50;;;;;;;;;;785838;75;26375;-79
2022/02/16 04:37:30;;;;;;;37.38;26.82;;;;;;;;;;787968;74;26275;-80
2022/02/16 04:38:33;;;;;;;33.20;24.77;;;;;;;;;;792189;71;26234;-80
2022/02/16 04:44:49;;;;;;;34.53;25.23;;;;;;;;;;778120;76;26289;-82
2022/02/16 04:55:04;;;;;;;41.00;26.23;;;;;;;;;;780362;75;26206;-82
2022/02/16 04:56:08;;;;;;;36.03;25.70;;;;;;;;;;780089;72;26225;-79
2022/02/16 05:01:04;;;;;;;36.03;26.37;;;;;;;;;;778901;76;26848;-78
2022/02/16 05:02:06;;;;;;;35.63;26.25;;;;;;;;;;778354;76;26371;-76
2022/02/16 05:03:09;;;;;;;32.95;25.55;;;;;;;;;;778456;76;26511;-80
2022/02/16 05:04:12;;;;;;;36.28;27.13;;;;;;;;;;778321;76;26296;-78
2022/02/16 05:05:16;;;;;;;32.75;25.05;;;;;;;;;;778099;76;26300;-80
2022/02/16 05:06:20;;;;;;;38.65;26.15;;;;;;;;;;779303;76;26300;-83
2022/02/16 05:07:23;;;;;;;36.77;26.70;;;;;;;;;;779015;76;26770;-81
2022/02/16 05:08:26;;;;;;;37.60;27.52;;;;;;;;;;778824;76;26260;-78
2022/02/16 05:09:29;;;;;;;37.13;26.80;;;;;;;;;;778483;75;26287;-81
2022/02/16 05:10:38;;;;;;;36.30;26.48;;;;;;;;;;779375;76;26265;-84
2022/02/16 05:11:40;;;;;;;37.42;26.85;;;;;;;;;;782908;74;26260;-84
2022/02/16 05:12:43;;;;;;;33.20;26.27;;;;;;;;;;792332;75;26540;-83
2022/02/16 05:13:46;;;;;;;37.42;27.77;;;;;;;;;;792153;75;26719;-82
2022/02/16 05:14:51;;;;;;;39.50;26.97;;;;;;;;;;792848;75;26282;-83
2022/02/16 05:15:54;;;;;;;37.10;27.13;;;;;;;;;;792420;75;26394;-86
2022/02/16 05:16:56;;;;;;;39.05;26.73;;;;;;;;;;792701;75;26355;-81
2022/02/16 05:17:59;;;;;;;34.92;26.48;;;;;;;;;;792406;75;26231;-81
2022/02/16 05:19:02;;;;;;;38.13;27.40;;;;;;;;;;792195;75;27049;-84
2022/02/16 05:20:05;;;;;;;38.85;28.07;;;;;;;;;;792607;75;26636;-83
2022/02/16 05:21:08;;;;;;;40.92;28.30;;;;;;;;;;792786;75;26289;-82
2022/02/16 05:22:11;;;;;;;37.73;27.85;;;;;;;;;;792376;75;26313;-80
2022/02/16 05:23:14;;;;;;;35.90;26.20;;;;;;;;;;792376;75;26696;-82
2022/02/16 05:24:17;;;;;;;38.83;28.30;;;;;;;;;;792169;75;26297;-83
2022/02/16 05:25:21;;;;;;;36.05;26.45;;;;;;;;;;792352;75;26351;-83
2022/02/16 05:26:24;;;;;;;37.13;26.45;;;;;;;;;;792232;75;26494;-82
2022/02/16 05:27:27;;;;;;;39.70;27.10;;;;;;;;;;792219;75;26813;-80
2022/02/16 05:28:29;;;;;;;38.73;26.80;;;;;;;;;;792631;75;26348;-82
2022/02/16 05:29:32;;;;;;;37.67;28.40;;;;;;;;;;792460;75;26226;-82
2022/02/16 05:34:26;;;;;;;40.60;25.82;;;;;;;;;;792736;75;26791;-78
2022/02/16 05:35:29;;;;;;;41.15;28.45;;;;;;;;;;792792;75;26247;-79
2022/02/16 05:39:49;;;;;;;38.33;28.60;;;;;;;;;;785511;73;26346;-80
2022/02/16 05:44:51;;;;;;;34.58;25.75;;;;;;;;;;784229;75;26255;-80
2022/02/16 05:45:54;;;;;;;37.53;28.00;;;;;;;;;;784454;75;26314;-80
2022/02/16 05:51:05;;;;;;;36.58;25.55;;;;;;;;;;784434;75;26641;-79
2022/02/16 05:52:08;;;;;;;39.67;28.75;;;;;;;;;;784466;75;26772;-78
2022/02/16 05:53:10;;;;;;;37.75;27.22;;;;;;;;;;783838;75;26290;-76
2022/02/16 05:54:13;;;;;;;42.93;30.62;;;;;;;;;;783876;75;26325;-75
2022/02/16 05:55:16;;;;;;;38.95;29.50;;;;;;;;;;783688;75;26808;-79
2022/02/16 05:56:19;;;;;;;41.45;29.77;;;;;;;;;;783817;75;26971;-79
2022/02/16 05:57:22;;;;;;;42.40;31.40;;;;;;;;;;783831;75;26371;-79
2022/02/16 05:58:24;;;;;;;40.23;31.05;;;;;;;;;;783794;75;26306;-78
2022/02/16 05:59:27;;;;;;;39.95;31.07;;;;;;;;;;783683;75;26301;-77
2022/02/16 06:00:29;;;;;;;40.17;29.15;;;;;;;;;;782725;75;26420;-78
2022/02/16 06:01:34;;;;;;;41.42;30.50;;;;;;;;;;783441;74;26751;-77
2022/02/16 06:02:36;;;;;;;39.48;29.63;;;;;;;;;;783670;75;26325;-78
2022/02/16 06:03:39;;;;;;;43.80;30.75;;;;;;;;;;783862;75;26313;-78
2022/02/16 06:04:44;;;;;;;41.68;30.20;;;;;;;;;;783754;75;26294;-77
2022/02/16 06:05:46;;;;;;;43.80;30.02;;;;;;;;;;783671;75;26387;-75
2022/02/16 06:06:49;;;;;;;42.98;31.25;;;;;;;;;;783724;75;26360;-77
2022/02/16 06:07:53;;;;;;;43.48;31.40;;;;;;;;;;783890;75;26382;-78
2022/02/16 06:08:55;;;;;;;46.98;31.35;;;;;;;;;;783797;75;26762;-79
2022/02/16 06:09:58;;;;;;;40.12;30.43;;;;;;;;;;783716;75;26278;-77
2022/02/16 06:11:02;;;;;;;39.10;30.35;;;;;;;;;;783887;75;26298;-76
2022/02/16 06:12:05;;;;;;;39.00;28.65;;;;;;;;;;783846;75;24355;-78
2022/02/16 06:13:08;;;;;;;40.35;29.55;;;;;;;;;;783983;75;26748;-78
2022/02/16 06:14:10;;;;;;;38.80;30.10;;;;;;;;;;783797;75;26309;-79
2022/02/16 06:15:13;;;;;;;40.28;29.00;;;;;;;;;;783813;75;26287;-79
2022/02/16 06:16:16;;;;;;;41.28;28.85;;;;;;;;;;783798;75;26322;-79
2022/02/16 06:17:19;;;;;;;37.25;27.93;;;;;;;;;;783679;75;26805;-77
2022/02/16 06:18:21;;;;;;;37.58;28.27;;;;;;;;;;783892;75;26767;-79
2022/02/16 06:19:24;;;;;;;35.23;26.82;;;;;;;;;;783822;75;26356;-76
2022/02/16 06:20:26;;;;;;;36.08;27.02;;;;;;;;;;783800;75;26313;-78
2022/02/16 06:21:29;;;;;;;39.05;28.70;;;;;;;;;;783757;75;26328;-78
2022/02/16 06:22:32;;;;;;;39.53;29.48;;;;;;;;;;783808;75;26348;-79
2022/02/16 06:23:35;;;;;;;37.30;28.00;;;;;;;;;;784544;75;27165;-78
2022/02/16 06:24:37;;;;;;;37.40;27.20;;;;;;;;;;783904;75;26381;-78
2022/02/16 06:25:41;;;;;;;38.58;28.57;;;;;;;;;;783763;74;26740;-79
2022/02/16 06:26:44;;;;;;;39.88;28.20;;;;;;;;;;783785;75;26396;-78
2022/02/16 06:27:47;;;;;;;44.60;29.50;;;;;;;;;;783779;75;26336;-79
2022/02/16 06:28:50;;;;;;;41.15;29.10;;;;;;;;;;784009;75;26278;-78
2022/02/16 06:29:52;;;;;;;41.92;29.32;;;;;;;;;;783969;75;26279;-78
2022/02/16 06:30:55;;;;;;;40.05;30.20;;;;;;;;;;783849;75;26274;-77
2022/02/16 06:31:58;;;;;;;42.13;29.25;;;;;;;;;;783907;75;26303;-78
2022/02/16 06:33:00;;;;;;;40.92;29.55;;;;;;;;;;783775;75;26306;-75
2022/02/16 06:34:03;;;;;;;41.28;28.73;;;;;;;;;;783820;75;26298;-76
2022/02/16 06:35:06;;;;;;;43.87;30.45;;;;;;;;;;783127;75;26286;-79
2022/02/16 06:36:09;;;;;;;41.98;29.25;;;;;;;;;;783616;75;26337;-78
2022/02/16 06:37:11;;;;;;;42.53;29.90;;;;;;;;;;783783;75;26274;-77
2022/02/16 06:38:14;;;;;;;42.05;29.00;;;;;;;;;;783685;75;26271;-81
2022/02/16 06:39:17;;;;;;;43.20;30.60;;;;;;;;;;783534;75;26322;-78
2022/02/16 06:40:20;;;;;;;40.20;29.37;;;;;;;;;;783757;74;26838;-79
2022/02/16 06:41:25;;;;;;;40.35;30.17;;;;;;;;;;782925;76;26283;-78
2022/02/16 06:42:27;;;;;;;39.83;29.95;;;;;;;;;;782926;76;26317;-78
2022/02/16 06:43:30;;;;;;;40.30;29.05;;;;;;;;;;782750;76;26247;-78
2022/02/16 06:44:33;;;;;;;39.13;28.60;;;;;;;;;;782747;76;26318;-77
2022/02/16 06:45:36;;;;;;;42.93;30.65;;;;;;;;;;782920;76;26384;-79
2022/02/16 06:46:38;;;;;;;40.90;29.27;;;;;;;;;;782743;76;26435;-79
2022/02/16 06:47:41;;;;;;;40.30;30.25;;;;;;;;;;782890;76;26791;-77
2022/02/16 06:48:44;;;;;;;38.50;29.48;;;;;;;;;;782902;76;26322;-79
2022/02/16 06:49:48;;;;;;;40.08;29.80;;;;;;;;;;782963;75;26310;-78
2022/02/16 06:50:51;;;;;;;40.80;30.12;;;;;;;;;;782971;76;26748;-77
2022/02/16 06:51:54;;;;;;;40.70;29.82;;;;;;;;;;782888;76;26364;-79
2022/02/16 06:52:58;;;;;;;43.75;30.85;;;;;;;;;;782770;75;27032;-79
2022/02/16 06:54:00;;;;;;;44.03;31.40;;;;;;;;;;782964;76;26353;-77
2022/02/16 06:55:03;;;;;;;39.23;29.00;;;;;;;;;;782791;76;26337;-79
2022/02/16 06:56:06;;;;;;;42.85;31.55;;;;;;;;;;782810;76;26740;-78
2022/02/16 06:57:09;;;;;;;43.50;29.85;;;;;;;;;;782769;76;26294;-77
2022/02/16 06:58:11;;;;;;;40.63;29.42;;;;;;;;;;782908;76;26311;-77
2022/02/16 06:59:14;;;;;;;41.83;30.00;;;;;;;;;;782829;76;26341;-77
2022/02/16 07:00:17;;;;;;;44.45;31.73;;;;;;;;;;782571;76;26708;-79
2022/02/16 07:01:20;;;;;;;42.10;31.15;;;;;;;;;;782841;76;26395;-79
2022/02/16 07:02:25;;;;;;;41.42;30.10;;;;;;;;;;782722;75;26314;-78
2022/02/16 07:03:28;;;;;;;45.05;31.77;;;;;;;;;;782840;75;26657;-79
2022/02/16 07:04:31;;;;;;;42.75;30.40;;;;;;;;;;782757;76;26286;-80
2022/02/16 07:05:33;;;;;;;42.98;30.30;;;;;;;;;;782779;76;26303;-79
2022/02/16 07:06:36;;;;;;;45.25;31.62;;;;;;;;;;782692;76;26756;-78
2022/02/16 07:07:39;;;;;;;43.10;31.75;;;;;;;;;;782851;76;26867;-82
2022/02/16 07:08:42;;;;;;;38.95;30.02;;;;;;;;;;783164;76;26422;-82
2022/02/16 07:09:45;;;;;;;43.90;33.33;;;;;;;;;;783042;76;26267;-81
2022/02/16 07:10:47;;;;;;;40.10;30.75;;;;;;;;;;783133;76;26485;-79
2022/02/16 07:11:52;;;;;;;43.05;31.37;;;;;;;;;;782799;76;26739;-82
2022/02/16 07:12:55;;;;;;;44.60;30.65;;;;;;;;;;783174;76;26466;-82
2022/02/16 07:13:57;;;;;;;45.15;32.15;;;;;;;;;;783280;76;26307;-83
2022/02/16 07:15:00;;;;;;;44.45;31.42;;;;;;;;;;783105;76;26375;-82
2022/02/16 07:16:04;;;;;;;43.20;32.23;;;;;;;;;;783083;76;26271;-83
2022/02/16 07:17:13;;;;;;;42.60;30.50;;;;;;;;;;783313;76;26314;-81
2022/02/16 07:18:16;;;;;;;44.88;30.72;;;;;;;;;;782955;76;26340;-81
2022/02/16 07:19:23;;;;;;;43.02;31.02;;;;;;;;;;783355;76;26254;-83
2022/02/16 07:20:26;;;;;;;40.05;30.85;;;;;;;9.94;87.76;74894.27;783268;76;26247;-81
2022/02/16 07:21:29;;;;;;;41.88;31.85;;;;;;;;;;783622;75;26308;-81
2022/02/16 07:22:32;;;;;;;43.40;32.25;;;;;;;;;;783340;76;26305;-81
2022/02/16 07:23:37;;;;;;;47.20;32.90;;;;;;;;;;783481;76;26305;-81
2022/02/16 07:24:44;;;;;;;41.23;32.10;;;;;;;;;;784477;76;26301;-82
2022/02/16 07:25:46;;;;;;;48.63;34.63;;;;;;;;;;784801;76;26297;-83
2022/02/16 07:27:02;;;;;;;45.40;33.65;;;;;;;;;;784049;76;26263;-80
2022/02/16 07:28:06;;;;;;;44.67;34.48;;;;;;;;;;769477;76;26250;-86
2022/02/16 07:29:09;;;;;;;47.88;35.98;;;;;;;;;;770285;76;26294;-84
2022/02/16 07:30:19;;;;;;;51.05;35.88;;;;;;;;;;783153;75;26668;-80
2022/02/16 07:31:18;;;;;;;49.53;36.28;;;;;;;;;;782620;75;26236;-80
2022/02/16 07:32:21;;;;;;;46.37;35.58;;;;;;;;;;782799;76;26780;-82
2022/02/16 07:33:24;;;;;;;47.80;36.90;;;;;;;;;;783632;76;26306;-84
2022/02/16 07:34:30;;;;;;;48.30;36.15;;;;;;;;;;783739;76;26393;-82
2022/02/16 07:35:34;;;;;;;48.80;37.13;;;;;;;;;;783890;76;26301;-83
2022/02/16 07:36:37;;;;;;;48.33;35.28;;;;;;;;;;783458;76;26247;-82
2022/02/16 07:37:39;;;;;;;50.08;36.68;;;;;;;;;;783492;76;26363;-82
2022/02/16 07:38:43;;;;;;;46.48;36.30;;;;;;;;;;783352;75;26298;-81
2022/02/16 07:39:46;;;;;;;53.30;37.17;;;;;;;;;;783404;76;26269;-83
2022/02/16 07:40:50;;;;;;;51.92;36.42;;;;;;;;;;783693;75;26290;-80
2022/02/16 07:41:54;;;;;;;51.70;37.33;;;;;;;;;;784338;75;26342;-81
2022/02/16 07:42:57;;;;;;;49.60;36.80;;;;;;;;;;784830;75;26270;-80
2022/02/16 07:44:00;;;;;;;49.03;37.20;;;;;;;;;;784786;75;26669;-77
2022/02/16 07:45:06;;;;;;;49.20;37.20;;;;;;;;;;784189;75;26321;-79
2022/02/16 07:46:10;;;;;;;55.65;35.78;;;;;;;;;;784203;75;26317;-79
2022/02/16 07:47:13;;;;;;;60.73;37.60;;;;;;;;;;784024;75;26337;-78
2022/02/16 07:48:15;;;;;;;55.17;36.42;;;;;;;;;;784042;75;26434;-78
2022/02/16 07:49:18;;;;;;;59.30;36.60;;;;;;;;;;783900;75;26374;-78
2022/02/16 07:50:21;;;;;;;50.48;37.10;;;;;;;;;;784376;75;26250;-77
2022/02/16 07:51:23;;;;;;;55.05;36.65;;;;;;;;;;784080;75;26248;-77
2022/02/16 07:52:27;;;;;;;54.30;38.20;;;;;;;;;;784039;75;26660;-78
2022/02/16 07:53:30;;;;;;;50.33;37.93;;;;;;;;;;784209;75;26290;-77
2022/02/16 07:54:33;;;;;;;49.13;35.70;;;;;;;;;;784244;75;26227;-79
2022/02/16 07:55:36;;;;;;;48.25;36.80;;;;;;;;;;783997;75;26279;-78
2022/02/16 07:56:38;;;;;;;47.67;37.38;;;;;;;;;;783977;75;26418;-77
2022/02/16 07:57:41;;;;;;;54.83;39.08;;;;;;;;;;783938;75;26736;-78
2022/02/16 07:58:44;;;;;;;47.23;35.90;;;;;;;;;;784015;75;26231;-78
2022/02/16 07:59:46;;;;;;;54.98;40.10;;;;;;;;;;784110;75;26665;-80
2022/02/16 08:00:49;;;;;;;51.70;37.60;;;;;;;;;;783943;75;26309;-79
2022/02/16 08:01:52;;;;;;;54.93;39.15;;;;;;;;;;783966;75;26332;-79
2022/02/16 08:02:55;;;;;;;50.40;39.38;;;;;;;;;;783948;75;26400;-83
2022/02/16 08:04:15;;;;;;;50.60;38.98;;;;;;;;;;783808;75;26365;-78
2022/02/16 08:05:02;;;;;;;52.93;40.33;;;;;;;;;;784131;74;26328;-80
2022/02/16 08:06:05;;;;;;;49.65;38.67;;;;;;;;;;783898;75;26302;-79
2022/02/16 08:07:08;;;;;;;48.80;37.88;;;;;;;;;;783851;75;26790;-80
2022/02/16 08:08:10;;;;;;;54.33;39.83;;;;;;;;;;784025;75;26374;-79
2022/02/16 08:09:15;;;;;;;50.35;38.78;;;;;;;;;;783946;75;26298;-79
2022/02/16 08:10:18;;;;;;;50.10;37.88;;;;;;;;;;783885;75;26332;-80
2022/02/16 08:11:20;;;;;;;50.80;38.70;;;;;;;;;;783955;75;26712;-81
2022/02/16 08:12:23;;;;;;;58.70;39.83;;;;;;;;;;784463;74;26743;-83
2022/02/16 08:13:26;;;;;;;54.30;39.50;;;;;;;;;;784579;75;26298;-82
2022/02/16 08:14:35;;;;;;;54.27;40.48;;;;;;;;;;784754;75;26243;-83
2022/02/16 08:18:02;;;;;;;51.25;37.98;;;;;;;;;;784750;75;26705;-82
2022/02/16 08:19:07;;;;;;;53.00;37.42;;;;;;;;;;783954;75;26364;-81
2022/02/16 08:20:11;;;;;;;50.38;37.13;;;;;;;;;;784113;74;26714;-81
2022/02/16 08:21:14;;;;;;;45.92;35.40;;;;;;;;;;784051;75;26691;-84
2022/02/16 08:22:16;;;;;;;43.87;33.75;;;;;;;;;;784402;75;26289;-82
2022/02/16 08:23:19;;;;;;;47.93;35.30;;;;;;;;;;784500;75;26689;-80
2022/02/16 08:26:31;;;;;;;48.08;32.58;;;;;;;;;;784559;75;26302;-80
2022/02/16 08:27:34;;;;;;;39.55;30.32;;;;;;;;;;784162;75;26344;-82
2022/02/16 08:28:37;;;;;;;42.67;32.13;;;;;;;;;;784039;75;26348;-83
2022/02/16 08:29:39;;;;;;;43.80;31.30;;;;;;;;;;784065;75;26320;-83
2022/02/16 08:30:42;;;;;;;38.88;29.77;;;;;;;;;;783392;75;26283;-83
2022/02/16 08:31:46;;;;;;;39.73;29.85;;;;;;;;;;784101;75;26341;-83
2022/02/16 08:32:49;;;;;;;38.40;28.83;;;;;;;;;;784117;75;26310;-83
2022/02/16 08:33:52;;;;;;;37.58;29.18;;;;;;;;;;784349;75;26344;-82
2022/02/16 08:34:54;;;;;;;36.38;28.60;;;;;;;;;;783970;74;26313;-85
2022/02/16 08:35:59;;;;;;;37.05;28.52;;;;;;;;;;784180;74;26235;-81
2022/02/16 08:37:07;;;;;;;35.23;27.62;;;;;;;;;;784713;75;26289;-81
2022/02/16 08:38:11;;;;;;;42.55;28.73;;;;;;;;;;784325;75;26617;-81
2022/02/16 08:39:13;;;;;;;34.45;27.90;;;;;;;;;;784583;75;26228;-81
2022/02/16 08:40:16;;;;;;;37.80;27.90;;;;;;;;;;784581;75;26735;-84
2022/02/16 08:41:21;;;;;;;37.20;29.25;;;;;;;;;;771062;76;26313;-82
2022/02/16 08:42:26;;;;;;;38.85;29.32;;;;;;;;;;788808;74;26281;-82
2022/02/16 08:43:28;;;;;;;39.73;30.20;;;;;;;;;;794647;74;26312;-82
2022/02/16 08:44:31;;;;;;;44.60;30.90;;;;;;;;;;794980;74;26314;-81
2022/02/16 08:45:34;;;;;;;39.88;31.12;;;;;;;;;;795350;74;26232;-82
2022/02/16 08:46:39;;;;;;;39.35;30.43;;;;;;;;;;795236;74;26296;-82
2022/02/16 08:47:42;;;;;;;40.48;31.93;;;;;;;;;;794512;74;26995;-81
2022/02/16 08:48:45;;;;;;;42.67;30.02;;;;;;;;;;794723;74;26398;-82
2022/02/16 08:49:47;;;;;;;42.48;30.55;;;;;;;;;;794872;74;26360;-83
2022/02/16 08:50:51;;;;;;;42.50;30.10;;;;;;;;;;794752;74;26301;-82
2022/02/16 08:51:54;;;;;;;43.68;30.65;;;;;;;;;;794766;74;26300;-84
2022/02/16 08:52:56;;;;;;;42.70;31.48;;;;;;;;;;794619;74;26273;-81
2022/02/16 08:53:59;;;;;;;41.68;31.23;;;;;;;;;;790397;74;26351;-81
2022/02/16 08:55:02;;;;;;;38.67;31.62;;;;;;;;;;790611;74;26292;-84
2022/02/16 08:56:05;;;;;;;41.25;32.95;;;;;;;;;;794660;74;26243;-83
2022/02/16 08:57:08;;;;;;;42.80;32.93;;;;;;;;;;794864;74;26366;-82
2022/02/16 08:58:12;;;;;;;43.83;30.80;;;;;;;;;;794652;74;26507;-81
2022/02/16 08:59:17;;;;;;;43.58;32.65;;;;;;;;;;794450;74;26288;-81
2022/02/16 09:00:20;;;;;;;44.05;32.90;;;;;;;;;;794785;74;26273;-82
2022/02/16 09:01:24;;;;;;;47.05;33.70;;;;;;;;;;795200;74;26347;-83
2022/02/16 09:02:27;;;;;;;44.15;31.82;;;;;;;;;;794879;74;26297;-84
2022/02/16 09:03:32;;;;;;;41.75;31.27;;;;;;;;;;794905;74;26273;-84
2022/02/16 09:04:36;;;;;;;44.75;32.13;;;;;;;;;;794724;74;26324;-83
2022/02/16 09:05:38;;;;;;;42.55;33.63;;;;;;;;;;794604;74;26284;-82
2022/02/16 09:07:27;;;;;;;44.03;31.85;;;;;;;;;;794778;74;26652;-81
2022/02/16 09:07:47;;;;;;;41.98;32.30;;;;;;;;;;789360;74;27283;-82
2022/02/16 09:08:50;;;;;;;39.67;30.80;;;;;;;;;;794678;74;26736;-83
2022/02/16 09:09:52;;;;;;;41.15;30.97;;;;;;;;;;794539;74;26356;-82
2022/02/16 09:10:55;;;;;;;43.78;32.42;;;;;;;;;;794793;74;26225;-84
2022/02/16 09:12:00;;;;;;;45.28;33.28;;;;;;;;;;794838;74;26742;-85
2022/02/16 09:13:03;;;;;;;44.55;31.25;;;;;;;;;;794996;74;26532;-83
2022/02/16 09:14:06;;;;;;;42.70;30.95;;;;;;;;;;794955;74;26316;-84
2022/02/16 09:15:08;;;;;;;41.80;30.23;;;;;;;;;;794752;74;26373;-83
2022/02/16 09:16:12;;;;;;;44.13;31.48;;;;;;;;;;794805;74;26732;-82
2022/02/16 09:17:14;;;;;;;46.92;33.05;;;;;;;;;;794682;74;26312;-83
2022/02/16 09:18:18;;;;;;;37.30;30.92;;;;;;;;;;794880;74;26292;-83
2022/02/16 09:19:21;;;;;;;42.00;31.23;;;;;;;;;;795027;74;26234;-84
2022/02/16 09:20:26;;;;;;;44.73;30.08;;;;;;;;;;795387;74;26242;-85
2022/02/16 09:21:28;;;;;;;41.53;29.87;;;;;;;;;;794614;74;26360;-81
2022/02/16 09:22:32;;;;;;;39.55;29.10;;;;;;;;;;794776;74;26293;-82
2022/02/16 09:23:36;;;;;;;40.45;29.50;;;;;;;;;;794821;74;26303;-85
2022/02/16 09:24:39;;;;;;;38.50;30.02;;;;;;;;;;795282;73;26354;-84
2022/02/16 09:25:42;;;;;;;40.65;30.37;;;;;;;;;;795043;74;26285;-83
2022/02/16 09:26:49;;;;;;;40.30;30.68;;;;;;;;;;794779;74;26676;-83
2022/02/16 09:27:49;;;;;;;39.50;28.67;;;;;;;;;;794285;74;26371;-83
2022/02/16 09:28:52;;;;;;;42.85;29.12;;;;;;;;;;794831;74;26367;-85
2022/02/16 09:29:54;;;;;;;39.10;29.20;;;;;;;;;;794939;74;26304;-81
2022/02/16 09:30:58;;;;;;;39.08;28.47;;;;;;;;;;795152;74;26355;-84
2022/02/16 09:32:01;;;;;;;35.73;28.10;;;;;;;;;;795385;74;26766;-83
2022/02/16 09:33:04;;;;;;;42.10;28.90;;;;;;;;;;794652;74;26367;-85